sensor_id;sensor_type;location;lat;lon;timestamp;pressure;altitude;pressure_sealevel;temperature;humidity
6500;BME280;3283;52.330;9.772;2022-10-31T00:00:30;101220.03;;;14.20;100.00
6500;BME280;3283;52.330;9.772;2022-10-31T00:02:55;101226.31;;;14.13;100.00
6500;BME280;3283;52.330;9.772;2022-10-31T00:05:21;101223.75;;;14.09;100.00
6500;BME280;3283;52.330;9.772;2022-10-31T00:07:46;101221.25;;;14.01;100.00
6500;BME280;3283;52.330;9.772;2022-10-31T00:10:12;101224.00;;;13.95;100.00
6500;BME280;3283;52.330;9.772;2022-10-31T00:12:37;101221.41;;;13.92;100.00
6500;BME280;3283;52.330;9.772;2022-10-31T00:15:03;101225.75;;;13.94;100.00
6500;BME280;3283;52.330;9.772;2022-10-31T00:17:28;101218.78;;;13.90;100.00
6500;BME280;3283;52.330;9.772;2022-10-31T00:19:54;101226.69;;;13.92;100.00
6500;BME280;3283;52.330;9.772;2022-10-31T00:22:19;101226.72;;;13.90;100.00
6500;BME280;3283;52.330;9.772;2022-10-31T00:24:44;101226.69;;;13.92;100.00
6500;BME280;3283;52.330;9.772;2022-10-31T00:27:10;101231.16;;;13.88;100.00
6500;BME280;3283;52.330;9.772;2022-10-31T00:29:35;101225.03;;;13.86;100.00
6500;BME280;3283;52.330;9.772;2022-10-31T00:32:01;101238.22;;;13.89;100.00
6500;BME280;3283;52.330;9.772;2022-10-31T00:34:26;101241.78;;;13.87;100.00
6500;BME280;3283;52.330;9.772;2022-10-31T00:36:51;101245.34;;;13.84;100.00
6500;BME280;3283;52.330;9.772;2022-10-31T00:39:17;101250.69;;;13.83;100.00
6500;BME280;3283;52.330;9.772;2022-10-31T00:41:42;101254.31;;;13.76;100.00
6500;BME280;3283;52.330;9.772;2022-10-31T00:44:08;101253.44;;;13.73;100.00
6500;BME280;3283;52.330;9.772;2022-10-31T00:46:33;101251.69;;;13.72;100.00
6500;BME280;3283;52.330;9.772;2022-10-31T00:48:59;101251.66;;;13.74;100.00
6500;BME280;3283;52.330;9.772;2022-10-31T00:51:24;101256.19;;;13.69;100.00
6500;BME280;3283;52.330;9.772;2022-10-31T00:53:50;101257.03;;;13.71;100.00
6500;BME280;3283;52.330;9.772;2022-10-31T00:56:15;101250.88;;;13.70;100.00
6500;BME280;3283;52.330;9.772;2022-10-31T00:58:41;101249.81;;;13.81;100.00
6500;BME280;3283;52.330;9.772;2022-10-31T01:01:06;101259.03;;;14.09;100.00
6500;BME280;3283;52.330;9.772;2022-10-31T01:03:33;101261.13;;;14.41;100.00
6500;BME280;3283;52.330;9.772;2022-10-31T01:06:10;101260.81;;;14.58;100.00
6500;BME280;3283;52.330;9.772;2022-10-31T01:08:37;101267.72;;;14.68;100.00
6500;BME280;3283;52.330;9.772;2022-10-31T01:11:06;101267.59;;;14.74;100.00
6500;BME280;3283;52.330;9.772;2022-10-31T01:13:32;101264.94;;;14.74;100.00
6500;BME280;3283;52.330;9.772;2022-10-31T01:16:00;101271.94;;;14.77;100.00
6500;BME280;3283;52.330;9.772;2022-10-31T01:18:26;101268.47;;;14.75;100.00
6500;BME280;3283;52.330;9.772;2022-10-31T01:21:16;101273.81;;;14.72;100.00
6500;BME280;3283;52.330;9.772;2022-10-31T01:23:42;101276.53;;;14.69;100.00
6500;BME280;3283;52.330;9.772;2022-10-31T01:29:06;101279.41;;;14.56;100.00
6500;BME280;3283;52.330;9.772;2022-10-31T01:31:35;101283.03;;;14.51;100.00
6500;BME280;3283;52.330;9.772;2022-10-31T01:34:01;101283.22;;;14.40;100.00
6500;BME280;3283;52.330;9.772;2022-10-31T01:36:32;101287.56;;;14.46;100.00
6500;BME280;3283;52.330;9.772;2022-10-31T01:39:00;101280.75;;;14.31;100.00
6500;BME280;3283;52.330;9.772;2022-10-31T01:41:28;101282.47;;;14.30;100.00
6500;BME280;3283;52.330;9.772;2022-10-31T01:43:55;101280.97;;;14.17;100.00
6500;BME280;3283;52.330;9.772;2022-10-31T01:48:50;101277.75;;;13.98;100.00
6500;BME280;3283;52.330;9.772;2022-10-31T01:51:17;101285.81;;;13.91;100.00
6500;BME280;3283;52.330;9.772;2022-10-31T01:53:46;101290.22;;;13.92;100.00
6500;BME280;3283;52.330;9.772;2022-10-31T01:56:13;101287.59;;;13.90;100.00
6500;BME280;3283;52.330;9.772;2022-10-31T01:58:41;101291.09;;;13.91;100.00
6500;BME280;3283;52.330;9.772;2022-10-31T02:01:07;101283.19;;;13.89;100.00
6500;BME280;3283;52.330;9.772;2022-10-31T02:03:33;101285.91;;;13.85;100.00
6500;BME280;3283;52.330;9.772;2022-10-31T02:05:59;101294.00;;;13.76;100.00
6500;BME280;3283;52.330;9.772;2022-10-31T02:08:30;101299.31;;;13.72;100.00
6500;BME280;3283;52.330;9.772;2022-10-31T02:10:57;101300.94;;;13.83;100.00
6500;BME280;3283;52.330;9.772;2022-10-31T02:13:23;101296.59;;;13.79;100.00
6500;BME280;3283;52.330;9.772;2022-10-31T02:15:52;101307.03;;;13.86;100.00
6500;BME280;3283;52.330;9.772;2022-10-31T02:18:19;101305.44;;;13.76;100.00
6500;BME280;3283;52.330;9.772;2022-10-31T02:21:03;101301.88;;;13.79;100.00
6500;BME280;3283;52.330;9.772;2022-10-31T02:26:26;101304.59;;;13.72;100.00
6500;BME280;3283;52.330;9.772;2022-10-31T02:39:36;101295.22;;;14.09;100.00
6500;BME280;3283;52.330;9.772;2022-10-31T02:42:16;101289.84;;;14.13;100.00
6500;BME280;3283;52.330;9.772;2022-10-31T02:44:51;101299.53;;;14.14;100.00
6500;BME280;3283;52.330;9.772;2022-10-31T02:47:27;101302.25;;;14.11;100.00
6500;BME280;3283;52.330;9.772;2022-10-31T02:50:03;101298.63;;;14.15;100.00
6500;BME280;3283;52.330;9.772;2022-10-31T02:52:32;101299.56;;;14.13;100.00
6500;BME280;3283;52.330;9.772;2022-10-31T02:54:58;101297.84;;;14.12;100.00
6500;BME280;3283;52.330;9.772;2022-10-31T02:57:30;101300.47;;;14.12;100.00
6500;BME280;3283;52.330;9.772;2022-10-31T03:00:07;101301.38;;;14.09;100.00
6500;BME280;3283;52.330;9.772;2022-10-31T03:02:39;101297.84;;;14.09;100.00
6500;BME280;3283;52.330;9.772;2022-10-31T03:10:51;101299.88;;;13.93;100.00
6500;BME280;3283;52.330;9.772;2022-10-31T03:13:24;101303.56;;;13.84;100.00
6500;BME280;3283;52.330;9.772;2022-10-31T03:18:34;101309.47;;;13.41;100.00
6500;BME280;3283;52.330;9.772;2022-10-31T03:21:22;101312.25;;;13.31;100.00
6500;BME280;3283;52.330;9.772;2022-10-31T03:23:51;101315.03;;;13.20;100.00
6500;BME280;3283;52.330;9.772;2022-10-31T03:26:20;101323.06;;;13.11;100.00
6500;BME280;3283;52.330;9.772;2022-10-31T03:28:53;101314.31;;;13.03;100.00
6500;BME280;3283;52.330;9.772;2022-10-31T03:31:24;101320.56;;;12.96;100.00
6500;BME280;3283;52.330;9.772;2022-10-31T03:33:50;101323.22;;;12.94;100.00
6500;BME280;3283;52.330;9.772;2022-10-31T03:36:17;101332.00;;;12.99;100.00
6500;BME280;3283;52.330;9.772;2022-10-31T03:38:45;101330.25;;;12.97;100.00
6500;BME280;3283;52.330;9.772;2022-10-31T03:41:17;101329.38;;;12.96;100.00
6500;BME280;3283;52.330;9.772;2022-10-31T03:43:52;101330.38;;;12.86;100.00
6500;BME280;3283;52.330;9.772;2022-10-31T03:46:19;101343.66;;;12.78;100.00
6500;BME280;3283;52.330;9.772;2022-10-31T03:48:45;101339.28;;;12.74;100.00
6500;BME280;3283;52.330;9.772;2022-10-31T03:51:51;101341.94;;;12.74;100.00
6500;BME280;3283;52.330;9.772;2022-10-31T03:54:28;101331.44;;;12.70;100.00
6500;BME280;3283;52.330;9.772;2022-10-31T03:57:00;101342.00;;;12.68;100.00
6500;BME280;3283;52.330;9.772;2022-10-31T03:59:33;101340.25;;;12.69;100.00
6500;BME280;3283;52.330;9.772;2022-10-31T04:02:07;101335.84;;;12.66;100.00
6500;BME280;3283;52.330;9.772;2022-10-31T04:04:37;101342.94;;;12.61;100.00
6500;BME280;3283;52.330;9.772;2022-10-31T04:07:04;101346.53;;;12.55;100.00
6500;BME280;3283;52.330;9.772;2022-10-31T04:09:35;101350.94;;;12.55;100.00
6500;BME280;3283;52.330;9.772;2022-10-31T04:12:04;101359.72;;;12.57;100.00
6500;BME280;3283;52.330;9.772;2022-10-31T04:14:35;101358.84;;;12.56;100.00
6500;BME280;3283;52.330;9.772;2022-10-31T04:17:03;101364.19;;;12.50;100.00
6500;BME280;3283;52.330;9.772;2022-10-31T04:19:32;101365.06;;;12.49;100.00
6500;BME280;3283;52.330;9.772;2022-10-31T04:21:57;101366.88;;;12.44;100.00
6500;BME280;3283;52.330;9.772;2022-10-31T04:24:23;101370.41;;;12.43;100.00
6500;BME280;3283;52.330;9.772;2022-10-31T04:26:49;101374.84;;;12.41;100.00
6500;BME280;3283;52.330;9.772;2022-10-31T04:29:14;101381.88;;;12.39;100.00
6500;BME280;3283;52.330;9.772;2022-10-31T04:31:40;101378.34;;;12.40;100.00
6500;BME280;3283;52.330;9.772;2022-10-31T04:34:05;101380.16;;;12.32;100.00
6500;BME280;3283;52.330;9.772;2022-10-31T04:36:32;101375.78;;;12.29;100.00
6500;BME280;3283;52.330;9.772;2022-10-31T04:38:58;101382.91;;;12.20;100.00
6500;BME280;3283;52.330;9.772;2022-10-31T04:41:23;101369.72;;;12.20;100.00
6500;BME280;3283;52.330;9.772;2022-10-31T04:43:48;101370.59;;;12.17;100.00
6500;BME280;3283;52.330;9.772;2022-10-31T04:46:14;101371.47;;;12.18;100.00
6500;BME280;3283;52.330;9.772;2022-10-31T04:48:39;101371.44;;;12.24;100.00
6500;BME280;3283;52.330;9.772;2022-10-31T04:51:05;101377.59;;;12.24;100.00
6500;BME280;3283;52.330;9.772;2022-10-31T04:53:31;101376.78;;;12.16;100.00
6500;BME280;3283;52.330;9.772;2022-10-31T04:55:58;101370.66;;;12.09;100.00
6500;BME280;3283;52.330;9.772;2022-10-31T04:58:24;101372.44;;;12.04;100.00
6500;BME280;3283;52.330;9.772;2022-10-31T05:00:54;101373.34;;;12.02;100.00
6500;BME280;3283;52.330;9.772;2022-10-31T05:03:20;101374.25;;;12.01;100.00
6500;BME280;3283;52.330;9.772;2022-10-31T05:05:45;101363.69;;;11.98;100.00
6500;BME280;3283;52.330;9.772;2022-10-31T05:08:11;101360.19;;;11.99;100.00
6500;BME280;3283;52.330;9.772;2022-10-31T05:10:36;101354.06;;;11.95;100.00
6500;BME280;3283;52.330;9.772;2022-10-31T05:13:03;101347.00;;;11.99;100.00
6500;BME280;3283;52.330;9.772;2022-10-31T05:15:29;101354.06;;;11.98;100.00
6500;BME280;3283;52.330;9.772;2022-10-31T05:17:55;101347.91;;;11.93;100.00
6500;BME280;3283;52.330;9.772;2022-10-31T05:20:23;101346.22;;;11.86;100.00
6500;BME280;3283;52.330;9.772;2022-10-31T05:22:50;101345.31;;;11.89;100.00
6500;BME280;3283;52.330;9.772;2022-10-31T05:25:17;101358.50;;;11.87;100.00
6500;BME280;3283;52.330;9.772;2022-10-31T05:27:45;101355.91;;;11.84;100.00
6500;BME280;3283;52.330;9.772;2022-10-31T05:30:13;101360.28;;;11.82;100.00
6500;BME280;3283;52.330;9.772;2022-10-31T05:32:44;101363.81;;;11.75;100.00
6500;BME280;3283;52.330;9.772;2022-10-31T05:35:13;101361.19;;;11.73;100.00
6500;BME280;3283;52.330;9.772;2022-10-31T05:37:39;101360.34;;;11.71;100.00
6500;BME280;3283;52.330;9.772;2022-10-31T05:40:07;101361.22;;;11.67;100.00
6500;BME280;3283;52.330;9.772;2022-10-31T05:42:33;101367.41;;;11.63;100.00
6500;BME280;3283;52.330;9.772;2022-10-31T05:44:59;101356.91;;;11.52;100.00
6500;BME280;3283;52.330;9.772;2022-10-31T05:47:25;101354.31;;;11.49;100.00
6500;BME280;3283;52.330;9.772;2022-10-31T05:49:50;101365.72;;;11.51;100.00
6500;BME280;3283;52.330;9.772;2022-10-31T05:52:17;101367.47;;;11.48;100.00
6500;BME280;3283;52.330;9.772;2022-10-31T05:54:42;101375.38;;;11.52;100.00
6500;BME280;3283;52.330;9.772;2022-10-31T05:57:08;101373.59;;;11.53;100.00
6500;BME280;3283;52.330;9.772;2022-10-31T05:59:33;101374.53;;;11.49;100.00
6500;BME280;3283;52.330;9.772;2022-10-31T06:01:59;101369.25;;;11.40;100.00
6500;BME280;3283;52.330;9.772;2022-10-31T06:04:24;101376.28;;;11.39;100.00
6500;BME280;3283;52.330;9.772;2022-10-31T06:06:49;101372.81;;;11.37;100.00
6500;BME280;3283;52.330;9.772;2022-10-31T06:09:15;101377.19;;;11.32;100.00
6500;BME280;3283;52.330;9.772;2022-10-31T06:11:41;101371.94;;;11.32;100.00
6500;BME280;3283;52.330;9.772;2022-10-31T06:14:07;101368.44;;;11.25;100.00
6500;BME280;3283;52.330;9.772;2022-10-31T06:16:32;101378.09;;;11.31;100.00
6500;BME280;3283;52.330;9.772;2022-10-31T06:18:58;101377.22;;;11.31;100.00
6500;BME280;3283;52.330;9.772;2022-10-31T06:21:24;101376.34;;;11.25;100.00
6500;BME280;3283;52.330;9.772;2022-10-31T06:23:49;101364.94;;;11.28;100.00
6500;BME280;3283;52.330;9.772;2022-10-31T06:26:15;101373.69;;;11.33;100.00
6500;BME280;3283;52.330;9.772;2022-10-31T06:28:40;101374.56;;;11.34;100.00
6500;BME280;3283;52.330;9.772;2022-10-31T06:31:06;101378.97;;;11.36;100.00
6500;BME280;3283;52.330;9.772;2022-10-31T06:33:32;101378.06;;;11.39;100.00
6500;BME280;3283;52.330;9.772;2022-10-31T06:35:58;101382.44;;;11.44;100.00
6500;BME280;3283;52.330;9.772;2022-10-31T06:38:25;101380.63;;;11.52;100.00
6500;BME280;3283;52.330;9.772;2022-10-31T06:40:51;101382.34;;;11.60;100.00
6500;BME280;3283;52.330;9.772;2022-10-31T06:43:16;101384.16;;;11.53;100.00
6500;BME280;3283;52.330;9.772;2022-10-31T06:45:42;101390.28;;;11.53;100.00
6500;BME280;3283;52.330;9.772;2022-10-31T06:48:07;101395.53;;;11.61;100.00
6500;BME280;3283;52.330;9.772;2022-10-31T06:50:33;101388.47;;;11.66;100.00
6500;BME280;3283;52.330;9.772;2022-10-31T06:52:58;101392.88;;;11.63;100.00
6500;BME280;3283;52.330;9.772;2022-10-31T06:55:25;101397.28;;;11.65;100.00
6500;BME280;3283;52.330;9.772;2022-10-31T06:57:55;101411.28;;;11.73;100.00
6500;BME280;3283;52.330;9.772;2022-10-31T07:00:22;101407.81;;;11.71;100.00
6500;BME280;3283;52.330;9.772;2022-10-31T07:02:59;101410.41;;;11.79;100.00
6500;BME280;3283;52.330;9.772;2022-10-31T07:05:26;101417.41;;;11.89;100.00
6500;BME280;3283;52.330;9.772;2022-10-31T07:08:03;101419.97;;;12.00;100.00
6500;BME280;3283;52.330;9.772;2022-10-31T07:10:31;101419.94;;;12.06;100.00
6500;BME280;3283;52.330;9.772;2022-10-31T07:13:02;101416.38;;;12.12;100.00
6500;BME280;3283;52.330;9.772;2022-10-31T07:15:29;101412.03;;;12.07;100.00
6500;BME280;3283;52.330;9.772;2022-10-31T07:18:03;101417.25;;;12.10;100.00
6500;BME280;3283;52.330;9.772;2022-10-31T07:20:29;101422.53;;;12.10;100.00
6500;BME280;3283;52.330;9.772;2022-10-31T07:22:55;101426.00;;;12.22;100.00
6500;BME280;3283;52.330;9.772;2022-10-31T07:25:22;101426.84;;;12.25;100.00
6500;BME280;3283;52.330;9.772;2022-10-31T07:27:48;101422.44;;;12.26;100.00
6500;BME280;3283;52.330;9.772;2022-10-31T07:30:14;101419.78;;;12.30;100.00
6500;BME280;3283;52.330;9.772;2022-10-31T07:32:41;101432.91;;;12.38;100.00
6500;BME280;3283;52.330;9.772;2022-10-31T07:35:12;101421.47;;;12.39;100.00
6500;BME280;3283;52.330;9.772;2022-10-31T07:37:37;101432.03;;;12.41;100.00
6500;BME280;3283;52.330;9.772;2022-10-31T07:40:04;101426.69;;;12.47;100.00
6500;BME280;3283;52.330;9.772;2022-10-31T07:42:44;101423.13;;;12.52;100.00
6500;BME280;3283;52.330;9.772;2022-10-31T07:45:11;101426.59;;;12.62;100.00
6500;BME280;3283;52.330;9.772;2022-10-31T07:50:15;101432.69;;;12.65;100.00
6500;BME280;3283;52.330;9.772;2022-10-31T07:52:41;101438.91;;;12.58;100.00
6500;BME280;3283;52.330;9.772;2022-10-31T07:55:06;101443.31;;;12.62;100.00
6500;BME280;3283;52.330;9.772;2022-10-31T07:57:32;101436.25;;;12.63;100.00
6500;BME280;3283;52.330;9.772;2022-10-31T07:59:58;101439.78;;;12.60;100.00
6500;BME280;3283;52.330;9.772;2022-10-31T08:02:24;101438.03;;;12.62;100.00
6500;BME280;3283;52.330;9.772;2022-10-31T08:04:49;101430.00;;;12.73;100.00
6500;BME280;3283;52.330;9.772;2022-10-31T08:07:15;101427.31;;;12.78;100.00
6500;BME280;3283;52.330;9.772;2022-10-31T08:09:41;101434.25;;;12.88;100.00
6500;BME280;3283;52.330;9.772;2022-10-31T08:12:06;101429.81;;;12.93;100.00
6500;BME280;3283;52.330;9.772;2022-10-31T08:14:31;101426.19;;;13.05;100.00
6500;BME280;3283;52.330;9.772;2022-10-31T08:16:57;101427.78;;;13.23;100.00
6500;BME280;3283;52.330;9.772;2022-10-31T08:19:22;101428.56;;;13.31;100.00
6500;BME280;3283;52.330;9.772;2022-10-31T08:21:51;101425.00;;;13.35;100.00
6500;BME280;3283;52.330;9.772;2022-10-31T08:24:18;101426.63;;;13.45;100.00
6500;BME280;3283;52.330;9.772;2022-10-31T08:26:43;101418.69;;;13.48;100.00
6500;BME280;3283;52.330;9.772;2022-10-31T08:29:09;101420.31;;;13.58;100.00
6500;BME280;3283;52.330;9.772;2022-10-31T08:31:35;101417.53;;;13.69;100.00
6500;BME280;3283;52.330;9.772;2022-10-31T08:34:00;101418.34;;;13.74;100.00
6500;BME280;3283;52.330;9.772;2022-10-31T08:36:27;101418.19;;;13.85;100.00
6500;BME280;3283;52.330;9.772;2022-10-31T08:38:52;101405.72;;;13.94;100.00
6500;BME280;3283;52.330;9.772;2022-10-31T08:41:18;101409.16;;;14.01;100.00
6500;BME280;3283;52.330;9.772;2022-10-31T08:43:43;101395.78;;;14.12;100.00
6500;BME280;3283;52.330;9.772;2022-10-31T08:46:09;101393.81;;;14.24;100.00
6500;BME280;3283;52.330;9.772;2022-10-31T08:48:34;101390.94;;;14.37;100.00
6500;BME280;3283;52.330;9.772;2022-10-31T08:51:00;101390.09;;;14.35;100.00
6500;BME280;3283;52.330;9.772;2022-10-31T08:53:26;101394.34;;;14.48;100.00
6500;BME280;3283;52.330;9.772;2022-10-31T08:55:54;101395.16;;;14.53;100.00
6500;BME280;3283;52.330;9.772;2022-10-31T08:58:20;101402.06;;;14.62;100.00
6500;BME280;3283;52.330;9.772;2022-10-31T09:00:47;101395.72;;;14.70;100.00
6500;BME280;3283;52.330;9.772;2022-10-31T09:03:15;101388.38;;;14.86;100.00
6500;BME280;3283;52.330;9.772;2022-10-31T09:05:41;101387.34;;;14.95;100.00
6500;BME280;3283;52.330;9.772;2022-10-31T09:08:07;101389.75;;;15.08;100.00
6500;BME280;3283;52.330;9.772;2022-10-31T09:10:35;101388.69;;;15.17;100.00
6500;BME280;3283;52.330;9.772;2022-10-31T09:13:06;101387.53;;;15.29;100.00
6500;BME280;3283;52.330;9.772;2022-10-31T09:15:33;101386.53;;;15.34;100.00
6500;BME280;3283;52.330;9.772;2022-10-31T09:17:59;101381.88;;;15.47;100.00
6500;BME280;3283;52.330;9.772;2022-10-31T09:20:26;101389.66;;;15.55;100.00
6500;BME280;3283;52.330;9.772;2022-10-31T09:23:00;101396.59;;;15.63;100.00
6500;BME280;3283;52.330;9.772;2022-10-31T09:25:26;101400.06;;;15.67;100.00
6500;BME280;3283;52.330;9.772;2022-10-31T09:27:56;101401.47;;;15.83;100.00
6500;BME280;3283;52.330;9.772;2022-10-31T09:30:21;101396.72;;;15.98;100.00
6500;BME280;3283;52.330;9.772;2022-10-31T09:32:46;101388.25;;;16.19;100.00
6500;BME280;3283;52.330;9.772;2022-10-31T09:35:12;101394.44;;;16.19;100.00
6500;BME280;3283;52.330;9.772;2022-10-31T09:37:37;101390.84;;;16.22;100.00
6500;BME280;3283;52.330;9.772;2022-10-31T09:40:03;101396.13;;;16.24;100.00
6500;BME280;3283;52.330;9.772;2022-10-31T09:50:07;101389.66;;;16.71;100.00
6500;BME280;3283;52.330;9.772;2022-10-31T09:52:41;101386.50;;;16.89;100.00
6500;BME280;3283;52.330;9.772;2022-10-31T09:55:30;101389.63;;;17.05;100.00
6500;BME280;3283;52.330;9.772;2022-10-31T09:57:58;101384.94;;;17.15;100.00
6500;BME280;3283;52.330;9.772;2022-10-31T10:00:24;101394.69;;;17.14;100.00
6500;BME280;3283;52.330;9.772;2022-10-31T10:02:57;101395.53;;;17.16;100.00
6500;BME280;3283;52.330;9.772;2022-10-31T10:05:32;101381.31;;;17.17;100.00
6500;BME280;3283;52.330;9.772;2022-10-31T10:08:03;101376.63;;;17.27;100.00
6500;BME280;3283;52.330;9.772;2022-10-31T10:10:49;101376.88;;;17.49;100.00
6500;BME280;3283;52.330;9.772;2022-10-31T10:30:23;101359.44;;;17.98;97.75
6500;BME280;3283;52.330;9.772;2022-10-31T10:32:56;101358.50;;;17.99;97.25
6500;BME280;3283;52.330;9.772;2022-10-31T10:41:08;101349.03;;;17.89;98.42
6500;BME280;3283;52.330;9.772;2022-10-31T11:00:21;101343.91;;;18.10;96.10
6500;BME280;3283;52.330;9.772;2022-10-31T11:02:47;101343.91;;;18.37;96.17
6500;BME280;3283;52.330;9.772;2022-10-31T11:08:04;101334.38;;;18.83;93.02
6500;BME280;3283;52.330;9.772;2022-10-31T11:10:30;101331.94;;;19.00;92.83
6500;BME280;3283;52.330;9.772;2022-10-31T11:15:28;101321.78;;;18.86;91.38
6500;BME280;3283;52.330;9.772;2022-10-31T11:17:57;101320.94;;;19.09;90.68
6500;BME280;3283;52.330;9.772;2022-10-31T11:23:01;101309.16;;;19.15;88.65
6500;BME280;3283;52.330;9.772;2022-10-31T11:25:27;101311.66;;;18.96;89.93
6500;BME280;3283;52.330;9.772;2022-10-31T11:30:25;101306.56;;;18.90;90.90
6500;BME280;3283;52.330;9.772;2022-10-31T11:32:51;101306.94;;;19.03;90.71
6500;BME280;3283;52.330;9.772;2022-10-31T11:35:19;101297.84;;;19.08;90.11
6500;BME280;3283;52.330;9.772;2022-10-31T11:37:48;101297.13;;;19.05;90.49
6500;BME280;3283;52.330;9.772;2022-10-31T11:40:21;101292.28;;;19.14;91.07
6500;BME280;3283;52.330;9.772;2022-10-31T11:42:55;101295.19;;;19.08;89.74
6500;BME280;3283;52.330;9.772;2022-10-31T11:47:49;101291.13;;;18.98;90.21
6500;BME280;3283;52.330;9.772;2022-10-31T11:50:24;101279.31;;;19.51;88.24
6500;BME280;3283;52.330;9.772;2022-10-31T11:52:51;101283.84;;;19.72;86.20
6500;BME280;3283;52.330;9.772;2022-10-31T11:55:34;101281.47;;;20.08;84.53
6500;BME280;3283;52.330;9.772;2022-10-31T11:58:01;101280.72;;;20.05;84.41
6500;BME280;3283;52.330;9.772;2022-10-31T12:00:28;101283.84;;;19.94;83.92
6500;BME280;3283;52.330;9.772;2022-10-31T12:03:27;101289.56;;;19.85;84.19
6500;BME280;3283;52.330;9.772;2022-10-31T12:06:18;101284.34;;;19.82;85.14
6500;BME280;3283;52.330;9.772;2022-10-31T12:08:46;101272.19;;;19.74;85.10
6500;BME280;3283;52.330;9.772;2022-10-31T12:11:35;101264.56;;;18.95;88.61
6500;BME280;3283;52.330;9.772;2022-10-31T12:14:50;101261.50;;;19.06;88.56
6500;BME280;3283;52.330;9.772;2022-10-31T12:17:16;101252.72;;;18.79;89.75
6500;BME280;3283;52.330;9.772;2022-10-31T12:28:06;101252.72;;;18.02;94.38
6500;BME280;3283;52.330;9.772;2022-10-31T12:41:25;101241.91;;;18.83;93.21
6500;BME280;3283;52.330;9.772;2022-10-31T12:44:11;101243.56;;;18.86;92.61
6500;BME280;3283;52.330;9.772;2022-10-31T12:47:35;101238.53;;;18.78;93.11
6500;BME280;3283;52.330;9.772;2022-10-31T12:54:59;101220.06;;;18.22;95.79
6500;BME280;3283;52.330;9.772;2022-10-31T12:57:52;101216.66;;;18.19;96.54
6500;BME280;3283;52.330;9.772;2022-10-31T13:00:19;101212.00;;;18.24;96.22
6500;BME280;3283;52.330;9.772;2022-10-31T13:02:58;101207.34;;;18.05;97.19
6500;BME280;3283;52.330;9.772;2022-10-31T13:05:29;101203.97;;;18.00;98.38
6500;BME280;3283;52.330;9.772;2022-10-31T13:13:10;101190.91;;;18.18;97.98
6500;BME280;3283;52.330;9.772;2022-10-31T13:18:32;101179.69;;;18.34;97.61
6500;BME280;3283;52.330;9.772;2022-10-31T13:21:02;101177.00;;;18.09;99.22
6500;BME280;3283;52.330;9.772;2022-10-31T13:23:36;101167.19;;;18.11;100.00
6500;BME280;3283;52.330;9.772;2022-10-31T13:26:13;101164.00;;;18.00;100.00
6500;BME280;3283;52.330;9.772;2022-10-31T13:28:46;101166.88;;;17.94;100.00
6500;BME280;3283;52.330;9.772;2022-10-31T13:31:13;101168.09;;;18.10;98.32
6500;BME280;3283;52.330;9.772;2022-10-31T13:33:44;101160.94;;;18.13;97.78
6500;BME280;3283;52.330;9.772;2022-10-31T13:36:41;101157.00;;;18.23;96.82
6500;BME280;3283;52.330;9.772;2022-10-31T13:44:48;101134.00;;;17.95;100.00
6500;BME280;3283;52.330;9.772;2022-10-31T13:47:27;101141.13;;;17.95;100.00
6500;BME280;3283;52.330;9.772;2022-10-31T13:52:45;101125.66;;;18.06;100.00
6500;BME280;3283;52.330;9.772;2022-10-31T13:55:43;101125.16;;;18.20;98.92
6500;BME280;3283;52.330;9.772;2022-10-31T13:58:26;101118.66;;;18.27;98.39
6500;BME280;3283;52.330;9.772;2022-10-31T14:01:15;101110.75;;;18.25;97.75
6500;BME280;3283;52.330;9.772;2022-10-31T14:03:44;101107.81;;;18.08;98.42
6500;BME280;3283;52.330;9.772;2022-10-31T14:06:11;101115.06;;;18.04;99.60
6500;BME280;3283;52.330;9.772;2022-10-31T14:08:47;101115.81;;;17.83;100.00
6500;BME280;3283;52.330;9.772;2022-10-31T14:11:25;101100.06;;;17.75;100.00
6500;BME280;3283;52.330;9.772;2022-10-31T14:13:54;101110.50;;;17.83;100.00
6500;BME280;3283;52.330;9.772;2022-10-31T14:16:26;101105.59;;;17.71;100.00
6500;BME280;3283;52.330;9.772;2022-10-31T14:19:06;101098.50;;;17.70;100.00
6500;BME280;3283;52.330;9.772;2022-10-31T14:21:44;101096.31;;;17.56;100.00
6500;BME280;3283;52.330;9.772;2022-10-31T14:24:34;101096.66;;;17.45;100.00
6500;BME280;3283;52.330;9.772;2022-10-31T14:29:44;101095.16;;;17.10;100.00
6500;BME280;3283;52.330;9.772;2022-10-31T14:34:43;101102.56;;;17.00;100.00
6500;BME280;3283;52.330;9.772;2022-10-31T14:46:07;101094.09;;;16.88;100.00
6500;BME280;3283;52.330;9.772;2022-10-31T14:51:44;101081.44;;;16.66;100.00
6500;BME280;3283;52.330;9.772;2022-10-31T14:54:25;101081.03;;;16.51;100.00
6500;BME280;3283;52.330;9.772;2022-10-31T14:56:55;101079.16;;;16.25;100.00
6500;BME280;3283;52.330;9.772;2022-10-31T14:59:27;101085.09;;;16.33;100.00
6500;BME280;3283;52.330;9.772;2022-10-31T15:01:59;101085.44;;;16.20;100.00
6500;BME280;3283;52.330;9.772;2022-10-31T15:04:27;101074.09;;;16.15;100.00
6500;BME280;3283;52.330;9.772;2022-10-31T15:07:23;101074.97;;;16.16;100.00
6500;BME280;3283;52.330;9.772;2022-10-31T15:09:57;101075.91;;;16.15;100.00
6500;BME280;3283;52.330;9.772;2022-10-31T15:12:30;101077.84;;;16.08;100.00
6500;BME280;3283;52.330;9.772;2022-10-31T15:14:55;101077.22;;;15.99;100.00
6500;BME280;3283;52.330;9.772;2022-10-31T15:17:23;101069.41;;;15.94;100.00
6500;BME280;3283;52.330;9.772;2022-10-31T15:19:49;101064.31;;;15.85;100.00
6500;BME280;3283;52.330;9.772;2022-10-31T15:22:18;101063.66;;;15.77;100.00
6500;BME280;3283;52.330;9.772;2022-10-31T15:24:45;101054.28;;;15.63;100.00
6500;BME280;3283;52.330;9.772;2022-10-31T15:27:15;101059.59;;;15.63;100.00
6500;BME280;3283;52.330;9.772;2022-10-31T15:32:23;101050.34;;;15.46;100.00
6500;BME280;3283;52.330;9.772;2022-10-31T15:34:51;101053.09;;;15.41;100.00
6500;BME280;3283;52.330;9.772;2022-10-31T15:37:20;101041.78;;;15.34;100.00
6500;BME280;3283;52.330;9.772;2022-10-31T15:39:47;101031.41;;;15.25;100.00
6500;BME280;3283;52.330;9.772;2022-10-31T15:42:32;101034.00;;;15.27;100.00
6500;BME280;3283;52.330;9.772;2022-10-31T15:45:15;101036.81;;;15.22;100.00